Adams, New York
Current Conditions -  °F | °C
As of 11:56 AM on Thursday 23 Oct 2014 (Local Time) from KART Reporting Station
Clear Clear  
Wind Chill: 12°   Ceiling: Unl
Heat Index: 12°   Visibility: 10mi
Dew Point:   Wind: 17mph
Humidity: 53%   Direction: 30°NNE
Pressure: 30"   Gusts: 28mph
Location:  43.81°N, 76.02°W
Report Text: KART 231556Z AUTO 03015G24KT 10SM CLR 12/03 A3000 RMK AO2 SLP158 T01220028
Loading
Personal Weather Stations






























Interactive Weather Map
Tropical Storm Tracking
New forecast layout! Learn more

10-Day Weather Forecast

Advertisements
Track Severe Weather on mobile